Capitol Logistics 262


KBOS
Logan International Airport
Boston, Massachusetts, US
KMCI
Kansas City International Airport
Kansas City, Missouri, US

Route Details

Aircraft Information
Primary: Boeing 767-300BDSF
Backup: Boeing 757-200SF
Route Data
Distance: 1090nm
Sched. Duration: 3h 45m
Avg. Duration: 3h 26m (-19m)
Times Flown: 6
Recm'd Route: HYLND5 HYLND CAM Q822 GONZZ Q29 DORET DJB J60 JOT J26 IRK BQS6
Planned Altitude: 36,000ft
Origin Wx: KBOS 251254Z 33008KT 10SM BKN038 07/00 A3025 RMK AO2 SLP241 T00670000
Dest. Wx: KMCI 251312Z 02008KT 10SM OVC028 03/M01 A3015 RMK AO2 T00331006 $
Notes: METROAIR CARGO SUPPORT

Financial History
Total Freight: 526,186lbs
Average Load: 87,698lbs/flt
Fuel Used: 210,891lbs
Avg. Fuel Used: 35,149lbs/flt
Fuel Expense: $248,851
Avg. Fuel Expense: $41,475
Avg. Fuel Cost: $1.18/lbs
Total Gross Income: $710,019
Pilot Pay: $1,264
Total Expenses: $76,994
Total Revenue: $379,065
Average Revenue: $118,336.49